Time;durP1;ratioP1;P1;durP2;ratioP2;P2;SDS_P1;SDS_P2;PMS_P1;PMS_P2;Temp;Humidity;BMP_temperature;BMP_pressure;BME280_temperature;BME280_humidity;BME280_pressure;Samples;Min_cycle;Max_cycle;Signal;HPM_P1;HPM_P2
2023/08/04 00:01:01;;;;;;;14.48;5.03;;;16.90;99.90;;;;;;5031392;28;20072;-75
2023/08/04 00:03:48;;;;;;;6.68;3.40;;;16.90;99.90;;;;;;5017956;28;20037;-76
2023/08/04 00:06:34;;;;;;;15.13;4.57;;;16.90;99.90;;;;;;5030447;28;20067;-75
2023/08/04 00:09:20;;;;;;;10.38;3.80;;;16.90;99.90;;;;;;5004162;28;20118;-75
2023/08/04 00:12:06;;;;;;;10.88;3.72;;;16.90;99.90;;;;;;5017940;28;20049;-75
2023/08/04 00:14:52;;;;;;;11.85;3.95;;;16.90;99.90;;;;;;5020345;28;20060;-75
2023/08/04 00:17:38;;;;;;;19.15;4.63;;;16.90;99.90;;;;;;5002125;28;20072;-75
2023/08/04 00:20:24;;;;;;;11.43;4.10;;;16.80;99.90;;;;;;4998948;28;20045;-75
2023/08/04 00:23:10;;;;;;;10.60;4.13;;;16.80;99.90;;;;;;5002298;28;20100;-76
2023/08/04 00:25:56;;;;;;;11.13;4.32;;;16.80;99.90;;;;;;5005261;28;20136;-76
2023/08/04 00:28:42;;;;;;;10.40;3.95;;;16.80;99.90;;;;;;5004101;28;20772;-76
2023/08/04 00:31:28;;;;;;;11.00;4.65;;;16.80;99.90;;;;;;5005483;28;20049;-76
2023/08/04 00:34:14;;;;;;;9.65;4.03;;;16.80;99.90;;;;;;5006781;28;20102;-76
2023/08/04 00:37:00;;;;;;;11.60;4.05;;;16.80;99.90;;;;;;5039314;28;20127;-75
2023/08/04 00:39:46;;;;;;;10.35;3.90;;;16.80;99.90;;;;;;5003142;28;20099;-76
2023/08/04 00:42:32;;;;;;;10.98;4.07;;;16.80;99.90;;;;;;5032155;28;20041;-76
2023/08/04 00:45:18;;;;;;;15.00;4.88;;;16.80;99.90;;;;;;5031985;28;20091;-76
2023/08/04 00:48:04;;;;;;;10.98;4.65;;;16.80;99.90;;;;;;5004941;28;20107;-76
2023/08/04 00:50:50;;;;;;;10.27;4.53;;;16.80;99.90;;;;;;5004283;28;20052;-76
2023/08/04 00:53:36;;;;;;;13.77;4.30;;;16.70;99.90;;;;;;4984178;28;20041;-75
2023/08/04 00:56:22;;;;;;;10.27;4.43;;;16.70;99.90;;;;;;4999758;28;20129;-75
2023/08/04 00:59:08;;;;;;;15.52;4.25;;;16.70;99.90;;;;;;4994387;28;20713;-75
2023/08/04 01:01:54;;;;;;;13.90;4.80;;;16.70;99.90;;;;;;5003921;28;20064;-75
2023/08/04 01:04:40;;;;;;;11.02;4.32;;;16.70;99.90;;;;;;5005271;28;20034;-75
2023/08/04 01:07:28;;;;;;;9.25;3.80;;;16.60;99.90;;;;;;4991392;28;20034;-76
2023/08/04 01:10:14;;;;;;;15.70;4.32;;;16.60;99.90;;;;;;5004079;28;20083;-75
2023/08/04 01:13:03;;;;;;;13.05;4.72;;;16.60;99.90;;;;;;5031983;28;20048;-75
2023/08/04 01:15:49;;;;;;;13.90;3.83;;;16.60;99.90;;;;;;5004217;28;20056;-75
2023/08/04 01:18:35;;;;;;;12.10;3.90;;;16.50;99.90;;;;;;4998721;28;20120;-75
2023/08/04 01:21:21;;;;;;;14.93;4.03;;;16.50;99.90;;;;;;5004498;28;20034;-75
2023/08/04 01:24:08;;;;;;;19.15;5.43;;;16.40;99.90;;;;;;4998111;28;20037;-75
2023/08/04 01:26:54;;;;;;;12.02;4.15;;;16.40;99.90;;;;;;5008426;28;20041;-75
2023/08/04 01:29:44;;;;;;;13.77;4.30;;;16.40;99.90;;;;;;5021857;28;20555;-75
2023/08/04 01:32:30;;;;;;;12.40;4.38;;;16.30;99.90;;;;;;5021236;28;20037;-75
2023/08/04 01:35:16;;;;;;;8.02;3.80;;;16.30;99.90;;;;;;5020507;28;20112;-75
2023/08/04 01:38:02;;;;;;;10.07;4.15;;;16.40;99.90;;;;;;5020324;28;20474;-75
2023/08/04 01:40:48;;;;;;;12.05;4.22;;;16.40;99.90;;;;;;5000990;28;20104;-75
2023/08/04 01:43:34;;;;;;;19.38;4.55;;;16.40;99.90;;;;;;5002384;28;20033;-76
2023/08/04 01:46:19;;;;;;;12.80;3.92;;;16.40;99.90;;;;;;5016753;28;20041;-75
2023/08/04 01:49:05;;;;;;;12.73;4.13;;;16.40;99.90;;;;;;5039720;28;20033;-75
2023/08/04 01:51:51;;;;;;;11.02;3.88;;;16.40;99.90;;;;;;5024143;28;20370;-75
2023/08/04 01:54:37;;;;;;;13.73;3.80;;;16.40;99.90;;;;;;5022328;28;20049;-75
2023/08/04 01:57:23;;;;;;;17.80;4.40;;;16.40;99.90;;;;;;5021010;28;20041;-75
2023/08/04 02:00:11;;;;;;;11.07;4.55;;;16.40;99.90;;;;;;4995585;28;20052;-76
2023/08/04 02:02:57;;;;;;;19.13;4.32;;;16.40;99.90;;;;;;5013196;28;20057;-76
2023/08/04 02:05:48;;;;;;;19.50;4.32;;;16.40;99.90;;;;;;5020766;28;20046;-75
2023/08/04 02:08:34;;;;;;;17.02;5.05;;;16.40;99.90;;;;;;5007760;28;20080;-75
2023/08/04 02:11:20;;;;;;;14.60;4.18;;;16.40;99.90;;;;;;5019977;28;20080;-76
2023/08/04 02:14:06;;;;;;;17.75;4.38;;;16.40;99.90;;;;;;4987089;28;20148;-75
2023/08/04 02:16:51;;;;;;;14.73;4.80;;;16.50;99.90;;;;;;5007702;28;20041;-75
2023/08/04 02:19:38;;;;;;;13.02;4.15;;;16.50;99.90;;;;;;5001235;28;20073;-75
2023/08/04 02:22:23;;;;;;;12.98;3.75;;;16.50;99.90;;;;;;5002329;28;20042;-76
2023/08/04 02:25:09;;;;;;;13.85;4.38;;;16.60;99.90;;;;;;5020290;28;20346;-75
2023/08/04 02:27:55;;;;;;;15.13;3.83;;;16.60;99.90;;;;;;5019756;28;20041;-76
2023/08/04 02:30:41;;;;;;;15.82;4.65;;;16.60;99.90;;;;;;5034577;28;20037;-76
2023/08/04 02:33:27;;;;;;;10.32;3.63;;;16.50;99.90;;;;;;4987980;28;20458;-76
2023/08/04 02:36:13;;;;;;;11.52;3.95;;;16.60;99.90;;;;;;4987619;28;20052;-75
2023/08/04 02:38:59;;;;;;;16.88;4.80;;;16.60;99.90;;;;;;4989575;28;20045;-76
2023/08/04 02:41:45;;;;;;;12.55;4.07;;;16.60;99.90;;;;;;5006815;28;20377;-76
2023/08/04 02:44:31;;;;;;;14.35;4.78;;;16.60;99.90;;;;;;5020307;28;20033;-75
2023/08/04 02:47:17;;;;;;;12.88;4.95;;;16.50;99.90;;;;;;5001807;28;20034;-75
2023/08/04 02:50:05;;;;;;;15.02;4.63;;;16.50;99.90;;;;;;4987882;28;20560;-75
2023/08/04 02:52:51;;;;;;;14.88;5.28;;;16.50;99.90;;;;;;5031685;28;20044;-75
2023/08/04 02:55:37;;;;;;;14.95;5.60;;;16.50;99.90;;;;;;5027384;28;20036;-75
2023/08/04 02:58:23;;;;;;;12.73;4.57;;;16.40;99.90;;;;;;5039168;28;20045;-76
2023/08/04 03:01:10;;;;;;;17.27;5.05;;;16.50;99.90;;;;;;5019787;28;20120;-76
2023/08/04 03:03:56;;;;;;;15.82;5.00;;;16.50;99.90;;;;;;5019832;28;20041;-75
2023/08/04 03:06:42;;;;;;;13.32;4.53;;;16.40;99.90;;;;;;4990932;28;20128;-75
2023/08/04 03:09:28;;;;;;;15.05;5.22;;;16.40;99.90;;;;;;5018204;28;20037;-76
2023/08/04 03:12:14;;;;;;;12.48;4.63;;;16.40;99.90;;;;;;5006395;28;20037;-76
2023/08/04 03:15:00;;;;;;;16.63;4.57;;;16.40;99.90;;;;;;5020400;28;20092;-76
2023/08/04 03:17:46;;;;;;;15.95;4.78;;;16.30;99.90;;;;;;4992980;28;20128;-75
2023/08/04 03:20:37;;;;;;;10.43;3.90;;;16.30;99.90;;;;;;5033453;28;20037;-75
2023/08/04 03:23:23;;;;;;;15.88;4.60;;;16.30;99.90;;;;;;5006193;28;20359;-76
2023/08/04 03:26:09;;;;;;;14.65;4.60;;;16.30;99.90;;;;;;5017723;28;20041;-75
2023/08/04 03:28:55;;;;;;;15.02;4.45;;;16.20;99.90;;;;;;5019373;28;20103;-75
2023/08/04 03:31:42;;;;;;;13.77;5.18;;;16.20;99.90;;;;;;5004943;28;20083;-75
2023/08/04 03:34:28;;;;;;;14.65;5.13;;;16.10;99.90;;;;;;5033032;28;20047;-75
2023/08/04 03:37:14;;;;;;;19.88;5.97;;;16.10;99.90;;;;;;4985478;28;20433;-75
2023/08/04 03:39:59;;;;;;;17.70;5.40;;;16.00;99.90;;;;;;4993380;28;20045;-75
2023/08/04 03:42:45;;;;;;;14.88;6.30;;;15.90;99.90;;;;;;4990442;28;20793;-75
2023/08/04 03:45:31;;;;;;;14.45;5.60;;;15.90;99.90;;;;;;5018733;28;20033;-76
2023/08/04 03:48:17;;;;;;;18.92;5.70;;;15.90;99.90;;;;;;5000622;28;20038;-77
2023/08/04 03:51:03;;;;;;;12.30;5.75;;;15.90;99.90;;;;;;5015502;28;20045;-77
2023/08/04 03:53:49;;;;;;;12.80;5.40;;;15.90;99.90;;;;;;5019651;28;20041;-76
2023/08/04 03:56:35;;;;;;;13.88;5.65;;;15.90;99.90;;;;;;5020968;28;20742;-77
2023/08/04 03:59:21;;;;;;;15.98;5.00;;;15.90;99.90;;;;;;5000483;28;20540;-77
2023/08/04 04:02:07;;;;;;;17.52;6.03;;;15.90;99.90;;;;;;4988469;28;20042;-76
2023/08/04 04:04:53;;;;;;;15.48;5.57;;;16.00;99.90;;;;;;5018698;28;20041;-77
2023/08/04 04:07:39;;;;;;;18.77;5.43;;;16.00;99.90;;;;;;4992582;28;20037;-77
2023/08/04 04:10:25;;;;;;;14.20;4.93;;;16.00;99.90;;;;;;5006327;28;20034;-77
2023/08/04 04:13:11;;;;;;;14.55;5.00;;;15.90;99.90;;;;;;5021076;28;20038;-76
2023/08/04 04:15:57;;;;;;;10.05;3.90;;;15.90;99.90;;;;;;5007218;28;20037;-77
2023/08/04 04:18:43;;;;;;;13.00;4.70;;;15.90;99.90;;;;;;5020157;28;20046;-77
2023/08/04 04:21:29;;;;;;;18.20;4.53;;;16.00;99.90;;;;;;5018848;28;20103;-77
2023/08/04 04:24:15;;;;;;;14.20;5.15;;;16.00;99.90;;;;;;4992602;28;20048;-77
2023/08/04 04:27:01;;;;;;;14.82;4.93;;;15.90;99.90;;;;;;5006934;28;20041;-77
2023/08/04 04:29:47;;;;;;;13.75;4.70;;;15.90;99.90;;;;;;5019502;28;20099;-77
2023/08/04 04:32:33;;;;;;;13.85;4.45;;;15.90;99.90;;;;;;5019420;28;20076;-77
2023/08/04 04:35:19;;;;;;;13.77;4.70;;;15.80;99.90;;;;;;4984805;28;20042;-77
2023/08/04 04:38:05;;;;;;;14.57;5.07;;;15.80;99.90;;;;;;5004535;28;20048;-77
2023/08/04 04:40:57;;;;;;;14.02;4.25;;;15.80;99.90;;;;;;4986789;28;20128;-76
2023/08/04 04:43:43;;;;;;;16.42;4.75;;;15.80;99.90;;;;;;4987527;28;20463;-76
2023/08/04 04:46:29;;;;;;;16.75;4.00;;;15.80;99.90;;;;;;5003633;28;20124;-77
2023/08/04 04:49:16;;;;;;;17.60;4.57;;;15.80;99.90;;;;;;5018724;28;20675;-77
2023/08/04 04:52:02;;;;;;;14.13;4.15;;;15.80;99.90;;;;;;5019679;28;20045;-76
2023/08/04 04:54:48;;;;;;;18.35;4.38;;;15.80;99.90;;;;;;5009199;28;20132;-76
2023/08/04 04:57:39;;;;;;;10.60;4.13;;;15.80;99.90;;;;;;5022471;28;20052;-76
2023/08/04 05:00:27;;;;;;;12.90;4.15;;;15.80;99.90;;;;;;5011234;28;20705;-76
2023/08/04 05:03:13;;;;;;;13.23;4.53;;;15.90;99.90;;;;;;5017772;28;20052;-73
2023/08/04 05:05:58;;;;;;;13.52;4.03;;;15.80;99.90;;;;;;5000666;28;20041;-73
2023/08/04 05:08:44;;;;;;;11.90;4.63;;;15.80;99.90;;;;;;4990672;28;20048;-73
2023/08/04 05:11:30;;;;;;;11.52;3.80;;;15.80;99.90;;;;;;5020492;28;20041;-73
2023/08/04 05:14:16;;;;;;;9.15;3.58;;;15.80;99.90;;;;;;5028612;28;20076;-74
2023/08/04 05:17:03;;;;;;;15.55;4.40;;;15.80;99.90;;;;;;5000424;28;20128;-73
2023/08/04 05:19:49;;;;;;;8.13;3.80;;;15.90;99.90;;;;;;5014883;28;20057;-73
2023/08/04 05:22:35;;;;;;;12.30;3.83;;;15.80;99.90;;;;;;5007162;28;20041;-74
2023/08/04 05:25:21;;;;;;;9.98;4.15;;;15.90;99.90;;;;;;5013877;28;20111;-73
2023/08/04 05:28:23;;;;;;;11.02;4.15;;;15.90;99.90;;;;;;5013408;28;20369;-73
2023/08/04 05:31:09;;;;;;;11.65;4.05;;;16.00;99.90;;;;;;5010849;28;20658;-74
2023/08/04 05:33:56;;;;;;;12.10;4.53;;;15.90;99.90;;;;;;5020221;28;20045;-73
2023/08/04 05:36:42;;;;;;;9.75;3.67;;;16.00;99.90;;;;;;5006808;28;20052;-73
2023/08/04 05:39:28;;;;;;;15.95;3.78;;;16.00;99.90;;;;;;5017590;28;20049;-73
2023/08/04 05:42:14;;;;;;;14.07;3.88;;;16.00;99.90;;;;;;4989656;28;20053;-73
2023/08/04 05:45:00;;;;;;;10.68;3.83;;;16.00;99.90;;;;;;5017760;28;20073;-73
2023/08/04 05:47:46;;;;;;;10.77;3.67;;;16.00;99.90;;;;;;5019464;28;20029;-74
2023/08/04 05:50:32;;;;;;;11.57;3.78;;;16.10;99.90;;;;;;4990980;28;20045;-73
2023/08/04 05:53:17;;;;;;;12.85;3.58;;;16.10;99.90;;;;;;5018687;28;20044;-74
2023/08/04 05:56:04;;;;;;;12.27;4.35;;;16.10;99.90;;;;;;5021080;28;20048;-74
2023/08/04 05:58:50;;;;;;;9.68;3.50;;;16.10;99.90;;;;;;5019416;28;20060;-74
2023/08/04 06:01:36;;;;;;;10.90;3.95;;;16.20;99.90;;;;;;5031995;28;20560;-74
2023/08/04 06:04:22;;;;;;;15.43;4.55;;;16.30;99.90;;;;;;5019607;28;20053;-74
2023/08/04 06:07:08;;;;;;;9.30;3.60;;;16.30;99.90;;;;;;5005974;28;20089;-75
2023/08/04 06:09:54;;;;;;;9.32;3.55;;;16.30;99.90;;;;;;4986406;28;20042;-74
2023/08/04 06:12:40;;;;;;;12.48;3.92;;;16.30;99.90;;;;;;4986810;28;20386;-75
2023/08/04 06:15:26;;;;;;;7.93;3.15;;;16.40;99.90;;;;;;5004838;28;20052;-75
2023/08/04 06:18:11;;;;;;;9.93;4.30;;;16.50;99.90;;;;;;4989938;28;20050;-74
2023/08/04 06:20:58;;;;;;;8.73;3.08;;;16.40;99.90;;;;;;5009740;28;20046;-74
2023/08/04 06:23:45;;;;;;;14.40;3.70;;;16.40;99.90;;;;;;4979843;28;20366;-74
2023/08/04 06:26:32;;;;;;;13.98;3.72;;;16.30;99.90;;;;;;4993181;28;20109;-74
2023/08/04 06:29:18;;;;;;;16.20;3.37;;;16.30;99.90;;;;;;5000448;28;20133;-75
2023/08/04 06:32:07;;;;;;;8.73;3.58;;;16.40;99.90;;;;;;4992434;28;20427;-74
2023/08/04 06:34:53;;;;;;;10.63;3.15;;;16.40;99.90;;;;;;5009116;28;20102;-74
2023/08/04 06:37:39;;;;;;;14.70;3.88;;;16.60;99.90;;;;;;5011902;28;20091;-75
2023/08/04 06:40:25;;;;;;;13.48;3.20;;;16.60;99.90;;;;;;4984899;28;20045;-74
2023/08/04 06:43:11;;;;;;;11.93;3.25;;;16.70;99.90;;;;;;4966668;28;20054;-74
2023/08/04 06:45:57;;;;;;;11.40;3.25;;;16.70;99.90;;;;;;5006463;28;20096;-74
2023/08/04 06:48:43;;;;;;;10.75;2.75;;;16.70;99.90;;;;;;4994886;28;20046;-74
2023/08/04 06:51:29;;;;;;;10.05;2.92;;;16.70;99.90;;;;;;5000862;28;20038;-74
2023/08/04 06:54:16;;;;;;;9.45;2.70;;;16.70;99.90;;;;;;5012559;28;20073;-74
2023/08/04 06:57:02;;;;;;;10.52;3.20;;;16.70;99.90;;;;;;4985408;28;20046;-76
2023/08/04 06:59:48;;;;;;;10.95;3.42;;;16.80;99.90;;;;;;4997883;28;20104;-74
2023/08/04 07:02:34;;;;;;;7.82;2.78;;;16.70;99.90;;;;;;4989757;28;20050;-74
2023/08/04 07:05:20;;;;;;;8.20;2.72;;;16.70;99.90;;;;;;4997098;28;20100;-74
2023/08/04 07:08:06;;;;;;;11.30;3.30;;;16.60;99.90;;;;;;5012420;28;20049;-74
2023/08/04 07:10:52;;;;;;;11.80;3.00;;;16.60;99.90;;;;;;5000309;28;20045;-74
2023/08/04 07:13:38;;;;;;;13.07;3.35;;;16.60;99.90;;;;;;4998631;28;20045;-74
2023/08/04 07:16:24;;;;;;;12.23;3.25;;;16.60;99.90;;;;;;4967921;28;20123;-74
2023/08/04 07:19:10;;;;;;;9.27;3.40;;;16.70;99.90;;;;;;4982286;28;20073;-74
2023/08/04 07:21:56;;;;;;;12.05;3.33;;;16.70;99.90;;;;;;5005339;28;20545;-74
2023/08/04 07:24:43;;;;;;;5.80;3.33;;;16.70;99.90;;;;;;4985869;28;20180;-74
2023/08/04 07:27:29;;;;;;;9.10;3.50;;;16.60;99.90;;;;;;5011118;28;20064;-75
2023/08/04 07:30:15;;;;;;;13.98;3.58;;;16.60;99.90;;;;;;4986336;28;20061;-75
2023/08/04 07:33:04;;;;;;;10.98;3.42;;;16.70;99.90;;;;;;4998556;28;20797;-75
2023/08/04 07:35:54;;;;;;;12.85;3.85;;;16.70;99.90;;;;;;4979554;28;20763;-74
2023/08/04 07:38:40;;;;;;;10.52;3.25;;;16.70;99.90;;;;;;5009188;28;20081;-75
2023/08/04 07:41:25;;;;;;;12.48;3.70;;;16.70;99.90;;;;;;4994212;28;20050;-75
2023/08/04 07:44:12;;;;;;;11.10;3.53;;;16.70;99.90;;;;;;4997455;28;20042;-75
2023/08/04 07:46:58;;;;;;;8.98;3.53;;;16.80;99.90;;;;;;4998856;28;20038;-74
2023/08/04 07:49:44;;;;;;;8.10;3.10;;;16.80;99.90;;;;;;4984315;28;20042;-75
2023/08/04 07:52:29;;;;;;;12.02;3.63;;;16.80;99.90;;;;;;4996799;28;20037;-74
2023/08/04 07:55:15;;;;;;;14.65;3.47;;;16.90;99.90;;;;;;5010979;28;20041;-74
2023/08/04 07:58:02;;;;;;;10.05;3.50;;;16.80;99.90;;;;;;4996751;28;20449;-74
2023/08/04 08:00:48;;;;;;;9.02;3.13;;;16.90;99.90;;;;;;5009609;28;20067;-74
2023/08/04 08:03:34;;;;;;;11.90;3.50;;;17.00;99.90;;;;;;4994820;28;20049;-74
2023/08/04 08:06:20;;;;;;;11.25;3.50;;;17.10;99.90;;;;;;4984081;28;20054;-76
2023/08/04 08:09:07;;;;;;;6.70;3.03;;;17.20;99.90;;;;;;4984731;28;20044;-76
2023/08/04 08:11:53;;;;;;;16.25;4.10;;;17.20;99.90;;;;;;4998890;28;20077;-76
2023/08/04 08:14:39;;;;;;;11.30;2.97;;;17.20;99.90;;;;;;5005219;28;20373;-76
2023/08/04 08:17:30;;;;;;;10.55;2.95;;;17.10;99.90;;;;;;5013704;28;20485;-76
2023/08/04 08:20:16;;;;;;;12.13;2.92;;;17.10;99.90;;;;;;4983223;28;20048;-76
2023/08/04 08:23:02;;;;;;;8.32;3.30;;;17.20;99.90;;;;;;5030380;28;20097;-76
2023/08/04 08:25:48;;;;;;;9.32;2.83;;;17.20;99.90;;;;;;5018306;28;20036;-76
2023/08/04 08:28:34;;;;;;;8.55;3.10;;;17.30;99.90;;;;;;4991288;28;20084;-75
2023/08/04 08:31:20;;;;;;;9.32;2.72;;;17.30;99.90;;;;;;5005690;28;20056;-76
2023/08/04 08:34:06;;;;;;;6.32;2.88;;;17.30;99.90;;;;;;5018387;28;20049;-76
2023/08/04 08:36:54;;;;;;;12.50;3.47;;;17.30;99.90;;;;;;5004980;28;20033;-76
2023/08/04 08:39:40;;;;;;;11.13;3.10;;;17.30;99.90;;;;;;5016536;28;20052;-76
2023/08/04 08:42:26;;;;;;;5.75;2.63;;;17.40;99.90;;;;;;5019247;28;20073;-76
2023/08/04 08:45:12;;;;;;;8.73;2.60;;;17.50;99.90;;;;;;5031949;28;20029;-76
2023/08/04 08:47:59;;;;;;;5.70;2.60;;;17.50;99.90;;;;;;5019958;28;20069;-76
2023/08/04 08:50:45;;;;;;;7.13;2.75;;;17.60;99.90;;;;;;5005664;28;20038;-76
2023/08/04 08:53:32;;;;;;;8.70;2.58;;;17.50;99.90;;;;;;4990512;28;20651;-76
2023/08/04 08:56:18;;;;;;;10.18;2.33;;;17.50;99.90;;;;;;5017947;28;20528;-76
2023/08/04 08:59:04;;;;;;;8.32;3.00;;;17.50;99.90;;;;;;5006306;28;20132;-76
2023/08/04 09:01:50;;;;;;;8.73;2.40;;;17.60;99.90;;;;;;5018027;28;20049;-76
2023/08/04 09:04:37;;;;;;;8.93;3.33;;;17.70;99.90;;;;;;5004036;28;20037;-76
2023/08/04 09:07:23;;;;;;;6.95;2.80;;;17.60;99.90;;;;;;4992389;28;20124;-76
2023/08/04 09:10:09;;;;;;;10.30;3.05;;;17.70;99.90;;;;;;5017335;28;20045;-76
2023/08/04 09:12:57;;;;;;;8.90;2.70;;;17.70;99.90;;;;;;5009527;28;20362;-76
2023/08/04 09:15:53;;;;;;;7.55;3.03;;;17.80;99.90;;;;;;5018049;28;20037;-76
2023/08/04 09:18:39;;;;;;;11.98;2.72;;;17.90;99.90;;;;;;4990028;28;20377;-75
2023/08/04 09:21:25;;;;;;;7.22;1.90;;;17.90;99.90;;;;;;5025875;28;20037;-76
2023/08/04 09:24:13;;;;;;;6.00;2.38;;;18.00;99.90;;;;;;5005233;28;20117;-77
2023/08/04 09:26:59;;;;;;;7.07;2.20;;;17.90;99.90;;;;;;5021798;28;20046;-76
2023/08/04 09:30:00;;;;;;;9.02;2.67;;;18.00;99.90;;;;;;5003568;28;20178;-76
2023/08/04 09:32:47;;;;;;;7.97;2.45;;;17.90;99.90;;;;;;4999904;28;20030;-76
2023/08/04 09:35:34;;;;;;;8.57;2.43;;;17.80;99.90;;;;;;4985370;28;20053;-76
2023/08/04 09:38:21;;;;;;;6.72;2.08;;;17.90;99.90;;;;;;4998229;28;20046;-76
2023/08/04 09:41:07;;;;;;;6.80;2.40;;;18.00;99.90;;;;;;4999726;28;20045;-76
2023/08/04 09:43:53;;;;;;;7.47;2.10;;;18.00;99.90;;;;;;4991607;28;20069;-76
2023/08/04 09:46:47;;;;;;;11.25;2.30;;;18.00;99.90;;;;;;4993631;28;20037;-76
2023/08/04 09:49:33;;;;;;;6.75;2.00;;;18.00;99.90;;;;;;5003855;28;20080;-76
2023/08/04 09:52:20;;;;;;;3.97;1.88;;;18.00;99.90;;;;;;5015325;28;20133;-76
2023/08/04 09:55:09;;;;;;;6.57;2.20;;;18.10;99.90;;;;;;4987231;28;20103;-76
2023/08/04 09:57:59;;;;;;;5.82;1.85;;;18.10;99.90;;;;;;4993334;28;20150;-76
2023/08/04 10:00:45;;;;;;;6.97;2.03;;;18.10;99.90;;;;;;4993760;28;20116;-74
2023/08/04 10:03:31;;;;;;;6.57;2.08;;;18.10;99.90;;;;;;5019097;28;20037;-74
2023/08/04 10:06:17;;;;;;;7.57;2.50;;;18.00;99.90;;;;;;5005340;28;20060;-74
2023/08/04 10:09:04;;;;;;;5.10;2.30;;;17.90;99.90;;;;;;5018058;28;20485;-74
2023/08/04 10:11:50;;;;;;;7.75;2.33;;;18.00;99.90;;;;;;5004056;28;20541;-74
2023/08/04 10:14:36;;;;;;;8.13;2.60;;;18.00;99.90;;;;;;5018116;28;20103;-74
2023/08/04 10:17:22;;;;;;;5.72;2.35;;;18.00;99.90;;;;;;5018524;28;20048;-75
2023/08/04 10:20:09;;;;;;;9.27;2.40;;;18.00;99.90;;;;;;5004605;28;20057;-74
2023/08/04 10:22:55;;;;;;;5.53;2.40;;;18.10;99.90;;;;;;5017960;28;20785;-75
2023/08/04 10:25:58;;;;;;;7.93;2.60;;;18.20;99.90;;;;;;5019926;28;20041;-75
2023/08/04 10:29:07;;;;;;;5.75;2.28;;;18.30;99.90;;;;;;5006345;28;20643;-74
2023/08/04 10:31:55;;;;;;;5.03;2.38;;;18.50;99.90;;;;;;5028566;28;20111;-75
2023/08/04 10:34:41;;;;;;;;;;;18.60;99.90;;;;;;5005570;28;20041;-74
2023/08/04 10:37:27;;;;;;;5.70;2.00;;;18.80;99.90;;;;;;5045965;28;19912;-75
2023/08/04 10:40:14;;;;;;;5.15;1.83;;;18.80;99.90;;;;;;5015374;28;20049;-75
2023/08/04 10:43:04;;;;;;;6.28;1.77;;;18.80;99.90;;;;;;5002101;28;20068;-74
2023/08/04 10:45:52;;;;;;;3.30;1.25;;;18.90;99.90;;;;;;4998684;28;20033;-75
2023/08/04 10:48:40;;;;;;;3.95;1.42;;;18.80;99.90;;;;;;4998545;28;20038;-74
2023/08/04 10:51:26;;;;;;;4.82;1.42;;;18.80;99.90;;;;;;5006863;28;20041;-74
2023/08/04 10:54:12;;;;;;;5.00;1.70;;;18.80;99.90;;;;;;5004302;28;20048;-74
2023/08/04 10:56:58;;;;;;;8.43;1.60;;;18.90;99.90;;;;;;5004945;28;20132;-74
2023/08/04 10:59:44;;;;;;;6.30;1.52;;;18.80;99.90;;;;;;5021093;28;20086;-74
2023/08/04 11:02:30;;;;;;;4.57;1.70;;;18.80;99.90;;;;;;5008417;28;20124;-74
2023/08/04 11:05:16;;;;;;;4.97;1.60;;;19.00;99.90;;;;;;5024787;28;20029;-74
2023/08/04 11:08:02;;;;;;;4.32;1.98;;;19.10;99.90;;;;;;5031533;28;20051;-75
2023/08/04 11:10:53;;;;;;;4.55;1.50;;;18.90;99.90;;;;;;5003903;28;20108;-74
2023/08/04 11:13:42;;;;;;;10.05;1.52;;;19.00;99.90;;;;;;5016873;28;20045;-74
2023/08/04 11:16:30;;;;;;;5.03;1.50;;;19.00;99.90;;;;;;4999298;28;20091;-74
2023/08/04 11:19:19;;;;;;;5.30;1.63;;;19.20;99.90;;;;;;4995029;28;20065;-74
2023/08/04 11:22:09;;;;;;;4.35;1.30;;;19.50;99.90;;;;;;4983317;28;20362;-75
2023/08/04 11:24:55;;;;;;;6.50;1.30;;;19.80;99.90;;;;;;4997289;28;20096;-77
2023/08/04 11:27:41;;;;;;;6.63;1.60;;;19.90;99.90;;;;;;4996578;28;20042;-77
2023/08/04 11:30:28;;;;;;;3.25;1.35;;;19.80;99.90;;;;;;4994075;28;20461;-75
2023/08/04 11:33:14;;;;;;;5.53;1.20;;;19.70;99.90;;;;;;5011072;28;20195;-74
2023/08/04 11:36:02;;;;;;;4.65;1.50;;;19.70;99.90;;;;;;4996139;28;20133;-74
2023/08/04 11:38:48;;;;;;;4.07;1.30;;;20.00;99.90;;;;;;4978640;28;20038;-74
2023/08/04 11:41:34;;;;;;;5.13;1.23;;;20.30;99.90;;;;;;4979011;28;20140;-74
2023/08/04 11:44:21;;;;;;;2.50;1.10;;;20.10;99.90;;;;;;5010377;28;20034;-74
2023/08/04 11:47:08;;;;;;;3.75;1.30;;;20.10;99.90;;;;;;4992056;28;20351;-73
2023/08/04 11:49:54;;;;;;;6.30;1.45;;;20.00;99.90;;;;;;5010173;28;20037;-73
2023/08/04 11:52:41;;;;;;;2.20;1.10;;;19.90;99.90;;;;;;4997292;28;20046;-73
2023/08/04 11:55:27;;;;;;;3.80;1.38;;;19.80;99.90;;;;;;5011565;28;20046;-75
2023/08/04 11:58:13;;;;;;;3.17;1.05;;;19.70;99.90;;;;;;4995759;28;20534;-74
2023/08/04 12:00:59;;;;;;;3.10;1.20;;;19.70;99.90;;;;;;4998210;28;20045;-73
2023/08/04 12:03:47;;;;;;;3.25;1.00;;;19.50;99.90;;;;;;5004831;28;20042;-74
2023/08/04 12:06:34;;;;;;;4.40;1.10;;;19.40;99.90;;;;;;4989528;28;20050;-74
2023/08/04 12:09:21;;;;;;;2.88;1.30;;;19.40;99.90;;;;;;5019661;28;20037;-73
2023/08/04 12:12:08;;;;;;;2.67;1.30;;;19.40;99.90;;;;;;4996629;28;20089;-74
2023/08/04 12:14:57;;;;;;;3.90;1.67;;;19.30;99.90;;;;;;4990226;28;20052;-73
2023/08/04 12:17:44;;;;;;;6.55;1.15;;;19.20;99.90;;;;;;5012483;28;20202;-74
2023/08/04 12:20:30;;;;;;;2.03;1.00;;;19.30;99.90;;;;;;5001919;28;20136;-74
2023/08/04 12:23:16;;;;;;;4.60;1.42;;;19.20;99.90;;;;;;4984413;28;20048;-73
2023/08/04 12:26:03;;;;;;;3.35;1.42;;;19.10;99.90;;;;;;5016539;28;20068;-74
2023/08/04 12:28:49;;;;;;;4.75;2.33;;;19.00;99.90;;;;;;5001858;28;20480;-74
2023/08/04 12:31:36;;;;;;;7.78;2.22;;;18.90;99.90;;;;;;5002927;28;20095;-75
2023/08/04 12:34:22;;;;;;;2.85;1.45;;;18.80;99.90;;;;;;5014464;28;20042;-73
2023/08/04 12:37:09;;;;;;;4.22;1.58;;;18.80;99.90;;;;;;4988410;28;20076;-72
2023/08/04 12:39:55;;;;;;;4.15;1.52;;;18.90;99.90;;;;;;5015384;28;20042;-73
2023/08/04 12:42:41;;;;;;;2.45;1.20;;;19.00;99.90;;;;;;5017570;28;20057;-73
2023/08/04 12:45:27;;;;;;;2.40;1.25;;;19.00;99.90;;;;;;5013336;28;20033;-73
2023/08/04 12:48:13;;;;;;;3.72;1.38;;;19.50;99.90;;;;;;5003580;28;20313;-77
2023/08/04 12:51:00;;;;;;;6.30;1.60;;;19.80;99.90;;;;;;5003255;28;20040;-75
2023/08/04 12:53:47;;;;;;;3.57;1.87;;;20.10;99.90;;;;;;5017267;28;20083;-75
2023/08/04 12:56:33;;;;;;;4.97;1.48;;;20.50;99.90;;;;;;5002428;28;20288;-75
2023/08/04 12:59:19;;;;;;;4.22;1.33;;;20.70;99.90;;;;;;5015208;28;20557;-75
2023/08/04 13:02:05;;;;;;;5.35;1.60;;;20.80;99.90;;;;;;5017307;28;20049;-79
2023/08/04 13:04:52;;;;;;;6.03;1.60;;;21.00;99.90;;;;;;5005318;28;20469;-74
2023/08/04 13:07:38;;;;;;;3.13;1.27;;;21.10;99.90;;;;;;5000159;28;20041;-75
2023/08/04 13:10:24;;;;;;;2.63;1.10;;;21.10;99.90;;;;;;5016246;28;20041;-75
2023/08/04 13:13:10;;;;;;;6.07;1.60;;;21.40;99.90;;;;;;5017118;28;20045;-75
2023/08/04 13:15:59;;;;;;;3.80;1.60;;;21.70;99.90;;;;;;5021566;28;20087;-77
2023/08/04 13:18:45;;;;;;;4.05;1.30;;;21.70;99.90;;;;;;4982449;28;20864;-77
2023/08/04 13:21:31;;;;;;;3.80;1.20;;;21.80;99.90;;;;;;4988879;28;20053;-77
2023/08/04 13:24:17;;;;;;;5.78;1.70;;;21.90;99.90;;;;;;4996404;28;20117;-75
2023/08/04 13:27:05;;;;;;;3.25;1.13;;;21.90;99.90;;;;;;5004837;28;20255;-75
2023/08/04 13:29:51;;;;;;;3.80;1.20;;;21.60;99.90;;;;;;5013855;28;20049;-74
2023/08/04 13:32:37;;;;;;;3.78;1.20;;;21.80;99.90;;;;;;5013298;28;20042;-75
2023/08/04 13:35:23;;;;;;;4.82;1.30;;;21.90;99.10;;;;;;5012099;28;20073;-75
2023/08/04 13:38:09;;;;;;;4.13;1.80;;;21.60;99.90;;;;;;5000212;28;20516;-75
2023/08/04 13:40:55;;;;;;;4.40;2.47;;;21.40;99.90;;;;;;4988445;28;20042;-75
2023/08/04 13:43:41;;;;;;;3.25;1.20;;;21.30;99.90;;;;;;4982216;28;20034;-75
2023/08/04 13:46:29;;;;;;;3.25;1.10;;;21.40;99.90;;;;;;4999749;28;20037;-79
2023/08/04 13:49:15;;;;;;;2.78;1.38;;;21.40;99.90;;;;;;5016839;28;20041;-79
2023/08/04 13:52:01;;;;;;;3.97;1.65;;;21.20;99.90;;;;;;5003408;28;20113;-79
2023/08/04 13:54:47;;;;;;;2.53;1.15;;;21.20;99.90;;;;;;5000076;28;20038;-79
2023/08/04 13:57:33;;;;;;;2.03;1.20;;;21.50;99.90;;;;;;5001593;28;20045;-79
2023/08/04 14:00:19;;;;;;;4.40;1.58;;;21.80;99.90;;;;;;5015622;28;20038;-79
2023/08/04 14:03:05;;;;;;;3.45;1.35;;;21.90;99.90;;;;;;5012276;28;20066;-79
2023/08/04 14:05:58;;;;;;;3.78;1.38;;;21.90;99.90;;;;;;4986801;28;20092;-80
2023/08/04 14:08:44;;;;;;;2.03;1.10;;;22.00;99.90;;;;;;5012480;28;20038;-80
2023/08/04 14:11:30;;;;;;;2.67;1.00;;;22.20;99.90;;;;;;5012909;28;20034;-80
2023/08/04 14:14:16;;;;;;;2.05;0.95;;;22.30;99.00;;;;;;5004603;28;20046;-80
2023/08/04 14:17:02;;;;;;;2.33;1.00;;;22.30;99.30;;;;;;5001861;28;20048;-79
2023/08/04 14:19:48;;;;;;;2.30;0.95;;;22.60;99.60;;;;;;5017679;28;20046;-79